Time;durP1;ratioP1;P1;durP2;ratioP2;P2;SDS_P1;SDS_P2;PMS_P1;PMS_P2;Temp;Humidity;BMP_temperature;BMP_pressure;BME280_temperature;BME280_humidity;BME280_pressure;Samples;Min_cycle;Max_cycle;Signal;HPM_P1;HPM_P2
2021/04/04 05:49:49;;;;;;;;;;;;;;;21.82;30.21;97561.63;5127506;23;1638;-71
2021/04/04 05:52:19;;;;;;;;;;;;;;;21.76;30.29;97546.47;5042471;28;1054;-71
2021/04/04 05:55:05;;;;;;;;;;;;;;;21.86;30.20;97550.16;5042221;28;932;-71
2021/04/04 05:57:34;;;;;;;;;;;;;;;21.84;29.91;97547.78;5060018;28;897;-72
2021/04/04 06:00:06;;;;;;;;;;;;;;;21.77;30.36;97547.25;5059995;28;667;-72
2021/04/04 06:02:46;;;;;;;;;;;;;;;21.79;29.99;97545.53;5059530;28;967;-71
2021/04/04 06:05:23;;;;;;;;;;;;;;;22.00;29.43;97544.00;5058840;28;896;-73
2021/04/04 06:08:14;;;;;;;;;;;;;;;21.99;29.61;97541.63;5060354;28;587;-72
2021/04/04 06:10:43;;;;;;;;;;;;;;;21.75;30.04;97547.69;5059918;28;705;-73
2021/04/04 06:13:10;;;;;;;;;;;;;;;21.80;29.70;97558.44;5043022;28;698;-73
2021/04/04 06:15:39;;;;;;;;;;;;;;;21.83;29.52;97551.88;5042716;28;919;-73
2021/04/04 06:18:23;;;;;;;;;;;;;;;22.06;29.22;97569.69;5059454;28;1039;-73
2021/04/04 06:20:48;;;;;;;;;;;;;;;22.09;29.20;97572.41;5042467;28;1898;-71
2021/04/04 06:23:20;;;;;;;;;;;;;;;21.81;29.53;97582.72;5059623;28;614;-71
2021/04/04 06:25:49;;;;;;;;;;;;;;;21.71;29.72;97589.53;5059776;28;619;-71
2021/04/04 06:28:33;;;;;;;;;;;;;;;21.91;29.51;97594.09;5059697;28;713;-71
2021/04/04 06:31:28;;;;;;;;;;;;;;;22.05;29.16;97596.47;5060071;28;816;-71
2021/04/04 06:33:56;;;;;;;;;;;;;;;21.81;29.45;97599.72;5042444;28;1253;-72
2021/04/04 06:36:29;;;;;;;;;;;;;;;21.84;29.35;97610.09;5042214;28;1008;-70
2021/04/04 06:39:05;;;;;;;;;;;;;;;21.83;29.46;97607.75;5042757;28;660;-73
2021/04/04 06:41:39;;;;;;;;;;;;;;;21.75;29.29;97612.84;5059927;28;1965;-71
2021/04/04 06:44:04;;;;;;;;;;;;;;;21.81;29.21;97628.03;5059473;28;655;-72
2021/04/04 06:46:42;;;;;;;;;;;;;;;21.97;28.83;97624.25;5059588;28;681;-71
2021/04/04 06:49:11;;;;;;;;;;;;;;;21.89;29.15;97633.44;5059396;28;974;-70
2021/04/04 06:51:42;;;;;;;;;;;;;;;21.83;29.04;97642.50;5059411;28;583;-71
2021/04/04 06:54:07;;;;;;;;;;;;;;;21.70;29.50;97638.88;5059238;28;893;-73
2021/04/04 06:56:36;;;;;;;;;;;;;;;21.63;29.16;97627.81;5059330;28;928;-72
2021/04/04 06:59:17;;;;;;;;;;;;;;;21.65;29.15;97642.28;5059644;28;889;-72
2021/04/04 07:01:49;;;;;;;;;;;;;;;21.64;29.30;97640.72;5042220;28;1907;-71
2021/04/04 07:04:21;;;;;;;;;;;;;;;21.66;29.10;97649.56;5059537;28;666;-71
2021/04/04 07:06:49;;;;;;;;;;;;;;;21.80;28.80;97649.06;5059998;28;682;-71
2021/04/04 07:09:25;;;;;;;;;;;;;;;21.61;29.24;97657.84;5059327;28;889;-72
2021/04/04 07:11:54;;;;;;;;;;;;;;;21.62;29.25;97660.22;5059113;28;893;-72
2021/04/04 07:14:39;;;;;;;;;;;;;;;21.75;28.96;97652.47;5041892;28;646;-72
2021/04/04 07:17:22;;;;;;;;;;;;;;;21.74;29.06;97664.28;5062209;28;586;-71
2021/04/04 07:20:06;;;;;;;;;;;;;;;21.68;29.02;97668.91;5063222;28;595;-72
2021/04/04 07:22:50;;;;;;;;;;;;;;;21.77;28.48;97672.66;5063284;28;1969;-71
2021/04/04 07:25:25;;;;;;;;;;;;;;;21.93;28.59;97673.78;5063142;28;879;-73
2021/04/04 07:28:00;;;;;;;;;;;;;;;21.05;29.99;97678.91;5061648;28;971;-72
2021/04/04 07:30:38;;;;;;;;;;;;;;;21.87;28.49;97676.38;5062832;28;943;-71
2021/04/04 07:33:03;;;;;;;;;;;;;;;21.79;28.61;97667.31;5046455;28;583;-71
2021/04/04 07:35:33;;;;;;;;;;;;;;;21.72;28.70;97673.22;5063000;28;567;-71
2021/04/04 07:38:17;;;;;;;;;;;;;;;21.84;28.76;97678.06;5062534;28;1079;-72
2021/04/04 07:40:52;;;;;;;;;;;;;;;22.40;27.82;97673.81;5061995;28;1975;-73
2021/04/04 07:43:20;;;;;;;;;;;;;;;22.16;28.09;97681.91;5045085;28;1035;-72
2021/04/04 07:45:46;;;;;;;;;;;;;;;21.90;28.28;97678.28;5063037;28;724;-72
2021/04/04 07:48:24;;;;;;;;;;;;;;;21.90;28.47;97680.34;5044945;28;1174;-70
2021/04/04 07:50:56;;;;;;;;;;;;;;;21.93;28.32;97679.44;5062578;28;685;-71
2021/04/04 07:53:27;;;;;;;;;;;;;;;22.00;28.50;97685.66;5062064;28;692;-70
2021/04/04 07:56:00;;;;;;;;;;;;;;;21.94;28.29;97692.34;5061748;28;877;-71
2021/04/04 07:58:35;;;;;;;;;;;;;;;21.85;28.35;97695.84;5061620;28;975;-71
2021/04/04 08:01:01;;;;;;;;;;;;;;;21.89;28.34;97701.41;5061828;28;1967;-71
2021/04/04 08:03:29;;;;;;;;;;;;;;;21.92;28.36;97706.97;5062241;28;653;-71
2021/04/04 08:05:58;;;;;;;;;;;;;;;21.84;28.45;97695.06;5062041;28;752;-71
2021/04/04 08:08:28;;;;;;;;;;;;;;;21.66;28.59;97699.72;5044555;28;677;-71
2021/04/04 08:10:57;;;;;;;;;;;;;;;21.71;28.83;97702.78;5061897;28;1057;-71
2021/04/04 08:13:41;;;;;;;;;;;;;;;21.75;28.61;97711.16;5061297;28;860;-72
2021/04/04 08:16:07;;;;;;;;;;;;;;;21.84;28.22;97699.94;5062081;28;657;-71
2021/04/04 08:18:33;;;;;;;;;;;;;;;21.93;28.04;97710.59;5062049;28;737;-72
2021/04/04 08:21:05;;;;;;;;;;;;;;;21.91;28.34;97701.75;5062317;28;1906;-72
2021/04/04 08:23:51;;;;;;;;;;;;;;;21.85;28.54;97715.69;5061916;28;753;-71
2021/04/04 08:26:19;;;;;;;;;;;;;;;21.88;28.38;97716.84;5044082;28;1440;-71
2021/04/04 08:28:45;;;;;;;;;;;;;;;21.75;28.39;97714.78;5060979;28;832;-72
2021/04/04 08:31:21;;;;;;;;;;;;;;;21.69;28.43;97722.25;5044440;28;670;-72
2021/04/04 08:33:55;;;;;;;;;;;;;;;21.67;28.78;97724.75;5044435;28;747;-72
2021/04/04 08:36:21;;;;;;;;;;;;;;;21.66;28.82;97733.69;5061425;28;653;-71
2021/04/04 08:38:47;;;;;;;;;;;;;;;21.89;28.20;97719.19;5043709;28;913;-73
2021/04/04 08:41:15;;;;;;;;;;;;;;;21.88;28.58;97719.66;5044036;28;1976;-71
2021/04/04 08:43:45;;;;;;;;;;;;;;;21.82;28.32;97719.44;5043925;28;909;-71
2021/04/04 08:46:13;;;;;;;;;;;;;;;21.92;28.20;97717.53;5060941;28;849;-72
2021/04/04 08:48:39;;;;;;;;;;;;;;;21.75;28.67;97714.00;5060937;28;954;-71
2021/04/04 08:51:04;;;;;;;;;;;;;;;21.64;28.85;97730.53;5043892;28;603;-73
2021/04/04 08:53:30;;;;;;;;;;;;;;;21.84;28.31;97723.41;5043705;28;706;-71
2021/04/04 08:55:56;;;;;;;;;;;;;;;21.97;28.13;97716.94;5043862;28;650;-72
2021/04/04 08:58:23;;;;;;;;;;;;;;;21.97;28.03;97714.13;5060992;28;876;-73
2021/04/04 09:00:50;;;;;;;;;;;;;;;21.71;28.42;97719.78;5043431;28;1915;-72
2021/04/04 09:03:22;;;;;;;;;;;;;;;21.79;28.38;97715.47;5043449;28;1049;-72
2021/04/04 09:05:48;;;;;;;;;;;;;;;21.81;28.22;97707.31;5043579;28;747;-72
2021/04/04 09:08:13;;;;;;;;;;;;;;;21.76;28.52;97716.38;5060809;28;639;-72
2021/04/04 09:10:39;;;;;;;;;;;;;;;21.76;28.61;97710.72;5043889;28;799;-72
2021/04/04 09:13:08;;;;;;;;;;;;;;;21.88;28.51;97716.84;5043235;28;947;-70
2021/04/04 09:15:33;;;;;;;;;;;;;;;21.87;28.56;97716.03;5060683;28;869;-71
2021/04/04 09:18:01;;;;;;;;;;;;;;;21.86;28.50;97717.28;5043491;28;791;-72
2021/04/04 09:20:34;;;;;;;;;;;;;;;22.16;27.82;97727.25;5060980;28;1980;-72
2021/04/04 09:23:03;;;;;;;;;;;;;;;21.97;28.17;97725.44;5060401;28;634;-71
2021/04/04 09:25:32;;;;;;;;;;;;;;;21.84;28.29;97734.72;5060732;28;694;-70
2021/04/04 09:27:58;;;;;;;;;;;;;;;21.77;28.43;97737.78;5060136;28;1064;-71
2021/04/04 09:30:23;;;;;;;;;;;;;;;21.97;28.24;97728.28;5060300;28;904;-72
2021/04/04 09:32:58;;;;;;;;;;;;;;;21.90;28.21;97728.50;5060198;28;978;-71
2021/04/04 09:35:23;;;;;;;;;;;;;;;21.82;28.63;97730.78;5060940;28;601;-71
2021/04/04 09:37:49;;;;;;;;;;;;;;;21.91;28.09;97724.41;5043372;28;726;-73
2021/04/04 09:40:15;;;;;;;;;;;;;;;21.83;28.34;97721.81;5042746;28;1902;-71
2021/04/04 09:42:40;;;;;;;;;;;;;;;21.87;28.24;97723.75;5059977;28;949;-71
2021/04/04 09:45:12;;;;;;;;;;;;;;;21.87;28.18;97726.59;5060166;28;833;-71
2021/04/04 09:47:37;;;;;;;;;;;;;;;21.91;28.20;97730.06;5060234;28;958;-71
2021/04/04 09:50:03;;;;;;;;;;;;;;;21.86;28.29;97720.09;5060507;28;587;-72
2021/04/04 09:52:29;;;;;;;;;;;;;;;21.71;28.66;97716.94;5042631;28;1277;-70
2021/04/04 09:55:04;;;;;;;;;;;;;;;21.76;28.46;97716.38;5060244;28;657;-71
2021/04/04 09:57:29;;;;;;;;;;;;;;;21.79;28.21;97721.13;5059735;28;951;-71
2021/04/04 09:59:55;;;;;;;;;;;;;;;21.86;28.36;97720.09;5059676;28;851;-72
2021/04/04 10:02:32;;;;;;;;;;;;;;;21.86;28.24;97720.09;5059813;28;1910;-70
2021/04/04 10:04:57;;;;;;;;;;;;;;;21.84;28.23;97712.06;5060003;28;633;-72
2021/04/04 10:07:26;;;;;;;;;;;;;;;21.89;28.39;97701.41;5059848;28;612;-70
2021/04/04 10:09:51;;;;;;;;;;;;;;;21.69;28.61;97710.94;5060162;28;606;-73
2021/04/04 10:12:17;;;;;;;;;;;;;;;21.75;28.68;97702.66;5042008;28;814;-72
2021/04/04 10:14:47;;;;;;;;;;;;;;;21.76;28.67;97719.22;5042070;28;898;-71
2021/04/04 10:17:13;;;;;;;;;;;;;;;21.54;28.86;97724.72;5041969;28;1135;-72
2021/04/04 10:19:51;;;;;;;;;;;;;;;21.75;28.88;97717.63;5060002;28;822;-73
2021/04/04 10:22:17;;;;;;;;;;;;;;;21.85;28.57;97715.69;5041986;28;1971;-72
2021/04/04 10:24:42;;;;;;;;;;;;;;;21.83;28.55;97733.16;5059894;28;642;-72
2021/04/04 10:27:17;;;;;;;;;;;;;;;21.73;28.75;97737.09;5059585;28;665;-73
2021/04/04 10:29:42;;;;;;;;;;;;;;;21.74;28.99;97735.06;5059292;28;823;-72
2021/04/04 10:32:08;;;;;;;;;;;;;;;21.75;28.86;97737.44;5059188;28;892;-72
2021/04/04 10:34:43;;;;;;;;;;;;;;;21.84;28.63;97722.59;5041448;28;857;-71
2021/04/04 10:37:09;;;;;;;;;;;;;;;21.87;28.89;97720.91;5059581;28;599;-71
2021/04/04 10:39:34;;;;;;;;;;;;;;;21.54;29.02;97726.78;5059427;28;646;-71
2021/04/04 10:42:11;;;;;;;;;;;;;;;21.91;28.61;97721.56;5041819;28;1898;-72
2021/04/04 10:44:36;;;;;;;;;;;;;;;21.72;28.76;97709.25;5059014;28;890;-71
2021/04/04 10:47:18;;;;;;;;;;;;;;;21.74;28.75;97704.69;5041930;28;898;-72
2021/04/04 10:49:44;;;;;;;;;;;;;;;21.83;28.80;97709.69;5059421;28;635;-72
2021/04/04 10:52:09;;;;;;;;;;;;;;;21.73;28.77;97717.28;5062875;28;630;-71
2021/04/04 10:54:35;;;;;;;;;;;;;;;21.87;28.62;97709.59;5045907;28;659;-72
2021/04/04 10:57:00;;;;;;;;;;;;;;;21.83;28.78;97707.66;5063632;28;611;-72
2021/04/04 10:59:26;;;;;;;;;;;;;;;21.81;28.75;97706.50;5045397;28;884;-71
2021/04/04 11:01:51;;;;;;;;;;;;;;;21.85;28.56;97705.16;5062912;28;1902;-71
2021/04/04 11:04:16;;;;;;;;;;;;;;;21.96;28.81;97701.19;5045551;28;943;-71
2021/04/04 11:06:42;;;;;;;;;;;;;;;22.05;28.36;97704.13;5046141;28;670;-71
2021/04/04 11:09:07;;;;;;;;;;;;;;;21.85;28.82;97707.97;5046211;28;670;-71
2021/04/04 11:11:33;;;;;;;;;;;;;;;21.81;28.98;97707.31;5063473;28;675;-71
2021/04/04 11:14:00;;;;;;;;;;;;;;;21.79;28.67;97704.13;5045979;28;959;-70
2021/04/04 11:16:27;;;;;;;;;;;;;;;22.03;28.31;97717.97;5045704;28;975;-70
2021/04/04 11:18:54;;;;;;;;;;;;;;;21.90;28.42;97725.66;5046246;28;855;-71
2021/04/04 11:21:24;;;;;;;;;;;;;;;21.69;29.00;97722.25;5045963;28;1899;-71
2021/04/04 11:23:49;;;;;;;;;;;;;;;21.60;29.29;97719.31;5063343;28;626;-70
2021/04/04 11:26:22;;;;;;;;;;;;;;;21.60;29.00;97713.63;5063205;28;649;-70
2021/04/04 11:29:06;;;;;;;;;;;;;;;21.82;28.56;97714.56;5062877;28;1061;-70
2021/04/04 11:31:31;;;;;;;;;;;;;;;21.98;28.26;97707.19;5062610;28;838;-69
2021/04/04 11:34:26;;;;;;;;;;;;;;;21.89;28.50;97707.09;5063052;28;622;-71
2021/04/04 11:36:52;;;;;;;;;;;;;;;21.78;28.53;97702.56;5062754;28;622;-71
2021/04/04 11:39:17;;;;;;;;;;;;;;;21.79;28.72;97715.47;5062764;28;666;-70
2021/04/04 11:41:52;;;;;;;;;;;;;;;21.77;28.88;97712.31;5062588;28;1977;-71
2021/04/04 11:44:19;;;;;;;;;;;;;;;21.79;28.99;97712.63;5062331;28;861;-71
2021/04/04 11:46:48;;;;;;;;;;;;;;;21.82;28.84;97708.91;5062306;28;906;-71
2021/04/04 11:49:33;;;;;;;;;;;;;;;21.88;28.55;97708.34;5062494;28;1083;-70
2021/04/04 11:52:08;;;;;;;;;;;;;;;21.88;28.73;97711.16;5062730;28;661;-71
2021/04/04 11:54:44;;;;;;;;;;;;;;;21.93;28.49;97707.78;5062399;28;642;-71
2021/04/04 11:57:09;;;;;;;;;;;;;;;21.79;28.81;97709.81;5062307;28;655;-71
2021/04/04 11:59:35;;;;;;;;;;;;;;;21.74;28.85;97716.03;5062398;28;846;-70
2021/04/04 12:02:00;;;;;;;;;;;;;;;21.81;28.67;97713.00;5061226;28;2029;-70
2021/04/04 12:04:34;;;;;;;;;;;;;;;21.78;28.97;97705.38;5062065;28;795;-71
2021/04/04 12:07:02;;;;;;;;;;;;;;;21.83;28.89;97704.81;5062441;28;677;-71
2021/04/04 12:09:28;;;;;;;;;;;;;;;21.91;28.59;97704.59;5062132;28;717;-71
2021/04/04 12:11:53;;;;;;;;;;;;;;;21.85;28.59;97701.53;5044511;28;948;-71
2021/04/04 12:14:19;;;;;;;;;;;;;;;21.87;28.82;97693.38;5044747;28;854;-71
2021/04/04 12:16:45;;;;;;;;;;;;;;;21.75;29.07;97689.28;5043721;28;873;-70
2021/04/04 12:19:10;;;;;;;;;;;;;;;21.66;28.91;97683.53;5061918;28;976;-70
2021/04/04 12:21:47;;;;;;;;;;;;;;;21.77;28.85;97692.47;5061810;28;1901;-70
2021/04/04 12:24:12;;;;;;;;;;;;;;;21.71;29.20;97685.00;5062069;28;646;-70
2021/04/04 12:26:37;;;;;;;;;;;;;;;21.76;28.74;97679.56;5061791;28;771;-69
2021/04/04 12:29:03;;;;;;;;;;;;;;;22.00;28.66;97679.19;5043574;28;1096;-71
2021/04/04 12:31:29;;;;;;;;;;;;;;;21.88;28.57;97674.34;5043696;28;1002;-70
2021/04/04 12:33:54;;;;;;;;;;;;;;;21.78;28.91;97671.41;5044677;28;887;-71
2021/04/04 12:36:19;;;;;;;;;;;;;;;21.81;28.96;97672.53;5044369;28;1110;-70
2021/04/04 12:38:45;;;;;;;;;;;;;;;21.76;29.04;97665.41;5027019;28;775;-71
2021/04/04 12:41:10;;;;;;;;;;;;;;;21.84;28.85;97666.75;5061953;28;1897;-69
2021/04/04 12:43:39;;;;;;;;;;;;;;;21.82;29.02;97666.41;5043860;28;987;-70
2021/04/04 12:46:08;;;;;;;;;;;;;;;21.83;28.75;97670.84;5061525;28;809;-72
2021/04/04 12:48:40;;;;;;;;;;;;;;;21.75;29.13;97665.84;5061267;28;1091;-71
2021/04/04 12:51:05;;;;;;;;;;;;;;;21.73;29.34;97660.66;5061601;28;614;-70
2021/04/04 12:53:34;;;;;;;;;;;;;;;21.77;28.87;97657.72;5061267;28;627;-72
2021/04/04 12:56:00;;;;;;;;;;;;;;;20.76;29.00;97481.81;5061587;28;669;-71
2021/04/04 12:58:29;;;;;;;;;;;;;;;21.87;29.09;97658.59;5060551;28;957;-70
2021/04/04 13:00:54;;;;;;;;;;;;;;;21.69;29.05;97664.84;5060495;28;1973;-70
2021/04/04 13:03:24;;;;;;;;;;;;;;;21.73;29.33;97660.66;5043964;28;898;-69
2021/04/04 13:05:50;;;;;;;;;;;;;;;21.86;29.12;97663.44;5042670;28;1265;-71
2021/04/04 13:08:19;;;;;;;;;;;;;;;21.90;28.61;97664.13;5060044;28;991;-70
2021/04/04 13:11:14;;;;;;;;;;;;;;;21.87;28.89;97664.28;5043230;28;1107;-71
2021/04/04 13:13:40;;;;;;;;;;;;;;;21.82;28.90;97657.94;5050679;28;1296;-72
2021/04/04 13:16:06;;;;;;;;;;;;;;;21.77;29.12;97667.00;5060546;28;951;-72
2021/04/04 13:18:32;;;;;;;;;;;;;;;21.76;29.35;97665.41;5059956;28;904;-72
2021/04/04 13:21:03;;;;;;;;;;;;;;;21.87;28.81;97664.28;5060511;28;1977;-72
2021/04/04 13:23:35;;;;;;;;;;;;;;;21.90;28.76;97666.19;5043665;28;637;-73
2021/04/04 13:26:01;;;;;;;;;;;;;;;21.81;29.20;97664.03;5060857;28;676;-73
2021/04/04 13:28:27;;;;;;;;;;;;;;;21.87;28.94;97670.72;5059978;28;957;-73
2021/04/04 13:31:08;;;;;;;;;;;;;;;21.55;29.34;97660.41;5060423;28;888;-72
2021/04/04 13:33:33;;;;;;;;;;;;;;;21.83;29.05;97665.16;5060352;28;603;-71
2021/04/04 13:36:07;;;;;;;;;;;;;;;21.92;28.81;97661.66;5060324;28;619;-73
2021/04/04 13:38:33;;;;;;;;;;;;;;;21.79;29.00;97653.16;5060034;28;653;-71
2021/04/04 13:40:58;;;;;;;;;;;;;;;21.96;28.85;97641.69;5043271;28;1973;-71
2021/04/04 13:43:24;;;;;;;;;;;;;;;21.94;28.79;97641.38;5042817;28;1258;-72
2021/04/04 13:45:49;;;;;;;;;;;;;;;21.60;29.27;97645.69;5059738;28;931;-72
2021/04/04 13:48:16;;;;;;;;;;;;;;;21.73;29.26;97637.22;5059874;28;999;-72
2021/04/04 13:50:43;;;;;;;;;;;;;;;21.74;29.39;97630.28;5042762;28;1408;-72
2021/04/04 13:53:15;;;;;;;;;;;;;;;21.72;29.21;97636.41;5060494;28;602;-72
2021/04/04 13:55:41;;;;;;;;;;;;;;;21.64;29.32;97640.72;5059920;28;658;-72
2021/04/04 13:58:06;;;;;;;;;;;;;;;21.71;29.06;97634.84;5059291;28;943;-71
2021/04/04 14:00:41;;;;;;;;;;;;;;;21.58;29.36;97625.53;5059882;28;1905;-71
2021/04/04 14:03:09;;;;;;;;;;;;;;;21.75;29.19;97624.16;5059936;28;947;-73
2021/04/04 14:05:35;;;;;;;;;;;;;;;21.72;29.31;97624.31;5060089;28;663;-72
2021/04/04 14:08:04;;;;;;;;;;;;;;;21.69;29.35;97628.81;5042428;28;641;-72
2021/04/04 14:10:29;;;;;;;;;;;;;;;21.68;29.36;97613.06;5060000;28;662;-72
2021/04/04 14:12:54;;;;;;;;;;;;;;;21.73;29.00;97620.22;5042229;28;877;-72
2021/04/04 14:15:20;;;;;;;;;;;;;;;21.78;28.90;97623.25;5059654;28;979;-72
2021/04/04 14:17:46;;;;;;;;;;;;;;;21.66;29.13;97615.59;5059688;28;1007;-72
2021/04/04 14:20:16;;;;;;;;;;;;;;;21.63;29.37;97624.19;5059501;28;775;-73
2021/04/04 14:22:41;;;;;;;;;;;;;;;21.63;29.29;97616.47;5059410;28;1902;-71
2021/04/04 14:25:07;;;;;;;;;;;;;;;21.96;28.66;97610.53;5058942;28;650;-72
2021/04/04 14:27:32;;;;;;;;;;;;;;;21.78;28.92;97617.59;5059087;28;992;-71
2021/04/04 14:29:58;;;;;;;;;;;;;;;21.77;28.64;97610.34;5059103;28;935;-73
2021/04/04 14:32:24;;;;;;;;;;;;;;;21.80;28.88;97603.75;5059359;28;973;-69
2021/04/04 14:34:49;;;;;;;;;;;;;;;21.74;28.92;97616.91;5059969;28;579;-73
2021/04/04 14:37:14;;;;;;;;;;;;;;;21.73;28.95;97615.34;5059565;28;733;-70
2021/04/04 14:39:40;;;;;;;;;;;;;;;21.78;28.88;97611.94;5059308;28;700;-71
2021/04/04 14:42:05;;;;;;;;;;;;;;;21.82;28.90;97612.63;5058936;28;1890;-72
2021/04/04 14:44:31;;;;;;;;;;;;;;;21.70;28.92;97604.13;5059405;28;871;-70
2021/04/04 14:46:56;;;;;;;;;;;;;;;21.61;29.40;97602.00;5059280;28;973;-71
2021/04/04 14:49:22;;;;;;;;;;;;;;;21.65;29.10;97602.66;5059309;28;1193;-71
2021/04/04 14:51:47;;;;;;;;;;;;;;;21.78;29.12;97611.94;5059546;28;786;-71
2021/04/04 14:54:13;;;;;;;;;;;;;;;21.80;28.83;97609.44;5059002;28;1037;-71
2021/04/04 14:56:39;;;;;;;;;;;;;;;21.89;28.71;97607.94;5059032;28;857;-71
2021/04/04 14:59:05;;;;;;;;;;;;;;;21.75;29.06;97612.03;5059162;28;962;-72
2021/04/04 15:01:31;;;;;;;;;;;;;;;21.83;28.77;97624.72;5059376;28;1981;-73
2021/04/04 15:03:56;;;;;;;;;;;;;;;21.54;29.28;97620.00;5059521;28;660;-73
2021/04/04 15:06:21;;;;;;;;;;;;;;;21.82;28.82;97618.28;5059536;28;646;-72
2021/04/04 15:08:47;;;;;;;;;;;;;;;21.90;28.71;97606.69;5058758;28;1156;-71
2021/04/04 15:11:12;;;;;;;;;;;;;;;21.70;29.09;97607.75;5058993;28;822;-71
2021/04/04 15:13:38;;;;;;;;;;;;;;;21.69;28.87;97609.00;5059135;28;1173;-73
2021/04/04 15:16:03;;;;;;;;;;;;;;;21.82;29.12;97601.28;5059594;28;677;-71
2021/04/04 15:18:29;;;;;;;;;;;;;;;21.72;29.24;97613.75;5058948;28;671;-71
2021/04/04 15:20:54;;;;;;;;;;;;;;;21.72;29.11;97619.44;5058933;28;1961;-71
2021/04/04 15:23:20;;;;;;;;;;;;;;;21.75;29.17;97623.38;5058901;28;822;-71
2021/04/04 15:25:46;;;;;;;;;;;;;;;21.93;28.66;97617.13;5058882;28;992;-70
2021/04/04 15:28:11;;;;;;;;;;;;;;;21.87;28.75;97608.41;5059157;28;610;-73
2021/04/04 15:30:37;;;;;;;;;;;;;;;21.87;29.36;97614.06;5060102;28;654;-77
2021/04/04 15:35:39;;;;;;;;;;;;;;;22.16;29.84;97615.94;5098031;27;1221;-74
2021/04/04 15:38:05;;;;;;;;;;;;;;;22.27;29.30;97614.31;5097320;28;873;-72
2021/04/04 15:40:30;;;;;;;;;;;;;;;22.08;29.46;97612.56;5096644;28;1319;-72
2021/04/04 15:42:55;;;;;;;;;;;;;;;22.08;29.36;97612.56;5097461;28;645;-72
2021/04/04 15:45:22;;;;;;;;;;;;;;;21.97;29.44;97617.81;5097279;28;689;-72
2021/04/04 15:47:49;;;;;;;;;;;;;;;21.81;29.56;97622.38;5130476;27;780;-73
2021/04/04 15:50:15;;;;;;;;;;;;;;;21.89;29.34;97610.78;5097600;28;633;-75
2021/04/04 15:52:40;;;;;;;;;;;;;;;21.94;29.14;97613.03;5130592;27;617;-73
2021/04/04 15:55:06;;;;;;;;;;;;;;;21.85;29.24;97616.56;5096673;28;1929;-72
2021/04/04 15:57:31;;;;;;;;;;;;;;;21.67;29.43;97611.50;5096736;28;811;-72
2021/04/04 15:59:57;;;;;;;;;;;;;;;21.65;29.49;97630.19;5097307;28;858;-73
2021/04/04 16:02:23;;;;;;;;;;;;;;;21.73;29.17;97621.00;5096897;28;602;-73
2021/04/04 16:04:49;;;;;;;;;;;;;;;22.00;29.54;97616.88;5097054;28;661;-73
2021/04/04 16:07:14;;;;;;;;;;;;;;;22.39;29.36;97620.41;5097284;28;633;-73
2021/04/04 16:09:40;;;;;;;;;;;;;;;22.44;29.88;97605.66;5096404;28;1038;-73
2021/04/04 16:12:05;;;;;;;;;;;;;;;22.64;29.83;97589.13;5096405;28;929;-73
2021/04/04 16:14:31;;;;;;;;;;;;;;;22.65;29.81;97599.19;5096678;28;1973;-72
2021/04/04 16:16:57;;;;;;;;;;;;;;;22.29;29.52;97594.81;5096639;28;590;-72
2021/04/04 16:19:22;;;;;;;;;;;;;;;21.95;29.95;97591.94;5096601;28;722;-73
2021/04/04 16:21:47;;;;;;;;;;;;;;;21.79;29.88;97595.72;5096975;28;645;-72
2021/04/04 16:24:13;;;;;;;;;;;;;;;21.79;29.99;97601.41;5096168;28;830;-73
2021/04/04 16:26:38;;;;;;;;;;;;;;;21.81;30.12;97593.22;5096224;28;914;-73
2021/04/04 16:29:04;;;;;;;;;;;;;;;21.82;30.32;97592.78;5096613;28;940;-72
2021/04/04 16:31:29;;;;;;;;;;;;;;;22.01;29.66;97592.94;5096432;28;686;-72
2021/04/04 16:33:55;;;;;;;;;;;;;;;21.91;30.01;97591.28;5095988;28;1906;-73
2021/04/04 16:36:20;;;;;;;;;;;;;;;21.81;30.01;97588.38;5096555;28;579;-73
2021/04/04 16:38:46;;;;;;;;;;;;;;;22.04;29.58;97606.22;5096062;28;881;-72
2021/04/04 16:41:11;;;;;;;;;;;;;;;21.91;29.92;97605.44;5096205;28;905;-73
2021/04/04 16:43:38;;;;;;;;;;;;;;;21.85;30.07;97599.56;5096635;28;860;-72
2021/04/04 16:46:03;;;;;;;;;;;;;;;21.90;30.01;97589.69;5087881;28;701;-73
2021/04/04 16:48:29;;;;;;;;;;;;;;;21.69;30.17;97577.84;5082553;28;717;-74
2021/04/04 16:50:54;;;;;;;;;;;;;;;21.83;30.14;97573.75;5082635;28;609;-74
2021/04/04 16:53:20;;;;;;;;;;;;;;;21.81;29.91;97577.06;5082500;28;1902;-74
2021/04/04 16:55:45;;;;;;;;;;;;;;;21.68;29.99;97566.97;5082190;28;879;-74
2021/04/04 16:58:11;;;;;;;;;;;;;;;21.72;30.08;97574.13;5082745;28;970;-74
2021/04/04 17:00:36;;;;;;;;;;;;;;;21.84;29.78;97578.16;5082814;28;701;-74
2021/04/04 17:03:02;;;;;;;;;;;;;;;22.11;29.93;97583.31;5082409;28;689;-74
2021/04/04 17:05:27;;;;;;;;;;;;;;;22.29;29.87;97589.16;5082578;28;657;-74
2021/04/04 17:07:52;;;;;;;;;;;;;;;22.46;29.88;97591.81;5082052;28;957;-74
2021/04/04 17:10:19;;;;;;;;;;;;;;;22.61;29.31;97592.84;5082290;28;894;-74
2021/04/04 17:12:44;;;;;;;;;;;;;;;22.48;29.30;97592.13;5082561;28;950;-74
2021/04/04 17:15:11;;;;;;;;;;;;;;;22.29;29.14;97582.69;5081982;28;1975;-74
2021/04/04 17:17:36;;;;;;;;;;;;;;;21.99;29.37;97576.41;5082163;28;665;-74
2021/04/04 17:20:02;;;;;;;;;;;;;;;21.90;29.63;97581.19;5082293;28;642;-74
2021/04/04 17:22:28;;;;;;;;;;;;;;;21.83;29.90;97591.53;5081754;28;1090;-74
2021/04/04 17:24:53;;;;;;;;;;;;;;;21.67;30.30;97582.41;5081632;28;937;-73
2021/04/04 17:27:19;;;;;;;;;;;;;;;21.77;30.01;97582.03;5082436;28;921;-74
2021/04/04 17:29:44;;;;;;;;;;;;;;;21.90;29.71;97578.38;5081878;28;630;-74
2021/04/04 17:32:10;;;;;;;;;;;;;;;21.70;30.03;97576.59;5081418;28;1124;-74
2021/04/04 17:34:35;;;;;;;;;;;;;;;21.83;29.98;97583.03;5081623;28;1906;-74
2021/04/04 17:37:01;;;;;;;;;;;;;;;21.87;29.64;97579.31;5081407;28;856;-74
2021/04/04 17:39:26;;;;;;;;;;;;;;;21.93;29.67;97583.13;5081239;28;832;-74
2021/04/04 17:41:52;;;;;;;;;;;;;;;21.79;29.74;97590.06;5081955;28;831;-73
2021/04/04 17:44:18;;;;;;;;;;;;;;;21.75;29.76;97573.19;5081557;28;658;-74
2021/04/04 17:46:43;;;;;;;;;;;;;;;21.65;29.85;97563.00;5081614;28;643;-74
2021/04/04 17:49:08;;;;;;;;;;;;;;;21.79;30.21;97562.53;5081599;28;649;-74
2021/04/04 17:51:34;;;;;;;;;;;;;;;22.63;29.34;97559.16;5081124;28;913;-74
2021/04/04 17:54:00;;;;;;;;;;;;;;;22.45;29.76;97556.22;5081197;28;1906;-74
2021/04/04 17:56:25;;;;;;;;;;;;;;;22.55;29.43;97544.47;5081199;28;998;-74
2021/04/04 17:58:50;;;;;;;;;;;;;;;22.64;29.02;97535.22;5080755;28;626;-74
2021/04/04 18:01:16;;;;;;;;;;;;;;;22.20;29.64;97546.56;5081242;28;678;-74
2021/04/04 18:03:43;;;;;;;;;;;;;;;21.95;29.60;97544.59;5081585;28;582;-74
2021/04/04 18:06:12;;;;;;;;;;;;;;;21.82;29.91;97527.66;5081116;28;843;-74
2021/04/04 18:11:15;;;;;;;;;;;;;;;21.84;30.12;97547.00;5081306;28;1039;-74
2021/04/04 18:13:42;;;;;;;;;;;;;;;21.81;30.34;97543.06;5080816;28;1898;-75
2021/04/04 18:16:08;;;;;;;;;;;;;;;21.77;29.99;97539.56;5081030;28;645;-74
2021/04/04 18:18:33;;;;;;;;;;;;;;;21.80;30.02;97558.44;5080849;28;622;-74
2021/04/04 18:20:59;;;;;;;;;;;;;;;21.79;30.08;97568.19;5080543;28;1052;-74
2021/04/04 18:23:25;;;;;;;;;;;;;;;21.85;29.70;97559.91;5080513;28;864;-74
2021/04/04 18:25:50;;;;;;;;;;;;;;;21.70;30.03;97548.28;5080762;28;869;-74
2021/04/04 18:28:17;;;;;;;;;;;;;;;21.71;29.77;97549.88;5080631;28;650;-74
2021/04/04 18:30:42;;;;;;;;;;;;;;;21.74;29.66;97545.34;5081003;28;659;-74
2021/04/04 18:33:09;;;;;;;;;;;;;;;21.61;30.02;97542.53;5080893;28;626;-74
2021/04/04 18:35:35;;;;;;;;;;;;;;;21.74;29.76;97571.59;5080393;28;1959;-74
2021/04/04 18:38:01;;;;;;;;;;;;;;;21.89;29.48;97588.91;5080214;28;928;-74
2021/04/04 18:40:29;;;;;;;;;;;;;;;21.00;31.30;97581.25;5080484;28;983;-74
2021/04/04 18:42:54;;;;;;;;;;;;;;;22.19;29.54;97567.66;5080353;28;590;-74
2021/04/04 18:45:20;;;;;;;;;;;;;;;22.45;28.95;97544.88;5080315;28;649;-74
2021/04/04 18:47:46;;;;;;;;;;;;;;;22.63;28.94;97533.63;5080767;28;651;-74
2021/04/04 18:50:11;;;;;;;;;;;;;;;22.47;28.86;97533.84;5079992;28;903;-74
2021/04/04 18:52:37;;;;;;;;;;;;;;;21.99;29.13;97550.94;5080461;28;851;-74
2021/04/04 18:55:03;;;;;;;;;;;;;;;21.94;28.88;97557.16;5080219;28;2009;-74
2021/04/04 18:57:28;;;;;;;;;;;;;;;21.92;29.16;97558.91;5080129;28;1269;-74
2021/04/04 18:59:54;;;;;;;;;;;;;;;21.85;29.56;97560.69;5080146;28;705;-74
2021/04/04 19:02:19;;;;;;;;;;;;;;;21.73;29.61;97540.94;5080601;28;676;-74
2021/04/04 19:04:45;;;;;;;;;;;;;;;21.85;29.32;97552.19;5080076;28;827;-74